Terminal Aerodrome Forecast
Issued by NWS Twin Cities, MN

Home | Current Version | Previous Version | Graphics & Text | Print | Product List | Glossary On
Versions: 1 2 3 4 5 6 7 8 9 10 11 12 13 14 15 16 17 18 19 20 21 22 23 24 25 26
000
FTUS43 KMPX 282339
TAFMSP
TAF
KMSP 282339Z 2900/3006 09005KT P6SM FEW060 FEW300
     FM290300 13003KT P6SM SKC
     FM291600 18010KT P6SM SCT060
     FM300100 18004KT P6SM FEW250=

USA.gov is the U.S. government's official web portal to all federal, state and local government web resources and services.